Main page
METAR-TAF:

METAR-TAF

Airports :

Dubai, United Arab Emirates

Dubai International Airport

latitude: 25-15-10N, longitude: 055-21-52E, elevation: 8 m

Current weather observation

The report was made 20 minutes ago, at 05:00 UTC
Wind 5 kt from the East, varying between Northeast and Southeast
Temperature 26°C
Humidity 58%
Pressure 1016 hPa
Visibility 10 km or more
no clouds below 1500 m and no cumulonimbus

METAR: OMDB 290500Z 10005KT 040V130 CAVOK 26/17 Q1016 NOSIG

Time: 09:20 (05:20 UTC)

Forecast

The report was made 6 hours and 24 minutes ago, at 22:56 UTC
Forecast valid from 29 at 00 UTC to 30 at 06 UTC
Wind 5 kt from the Northeast
Visibility: 8000 m
Probability 30%
from 29 at 01 UTC to 29 at 05 UTC
Visibility: 1500 m
mist
Becoming
from 29 at 07 UTC to 29 at 09 UTC
Wind 10 kt from the North/Northwest
Becoming
from 29 at 16 UTC to 29 at 18 UTC
Wind 5 kt from the East/Northeast

TAF: OMDB 282256Z 2900/3006 04005KT 8000 NSC PROB30 2901/2905 1500 BR BECMG 2907/2909 33010KT BECMG 2916/2918 07005KT

Weather observations and forecasts of more than 4000 airports (METAR and TAF reports).

The available stations are represented by yellow and red dots on the map.

Hover mouse over dot to see the name of the station.

Then click to see weather observations and forecasts.

To change the map : click on the green buttons with a black cross to zoom in, on the green button with a dash to zoom out, or on the green arrows for adjacent maps.


METAR-TAF: